Time;durP1;ratioP1;P1;durP2;ratioP2;P2;SDS_P1;SDS_P2;PMS_P1;PMS_P2;Temp;Humidity;BMP_temperature;BMP_pressure;BME280_temperature;BME280_humidity;BME280_pressure;Samples;Min_cycle;Max_cycle;Signal;HPM_P1;HPM_P2
2023/06/25 00:01:46;;;;;;;48.13;23.85;;;;;;;17.76;100.00;101997.34;5202637;28;20029;-69
2023/06/25 00:04:16;;;;;;;41.47;22.60;;;;;;;17.73;100.00;101995.00;5202179;28;20029;-69
2023/06/25 00:06:48;;;;;;;46.97;22.55;;;;;;;17.77;100.00;101994.44;5201904;28;20025;-69
2023/06/25 00:09:18;;;;;;;43.05;23.95;;;;;;;17.72;100.00;101988.72;5202268;28;20113;-69
2023/06/25 00:11:49;;;;;;;41.22;22.92;;;;;;;17.65;100.00;101987.75;5202072;28;20036;-69
2023/06/25 00:14:19;;;;;;;46.40;23.25;;;;;;;17.61;100.00;101989.13;5202200;28;20029;-69
2023/06/25 00:16:57;;;;;;;35.88;20.35;;;;;;;17.68;100.00;101979.25;5233969;28;20021;-69
2023/06/25 00:19:27;;;;;;;33.40;17.50;;;;;;;17.66;100.00;101983.16;5202354;28;20053;-69
2023/06/25 00:21:58;;;;;;;20.25;12.50;;;;;;;17.65;100.00;101973.34;5202166;28;20105;-69
2023/06/25 00:24:28;;;;;;;31.58;15.70;;;;;;;17.64;100.00;101967.06;5202167;28;20785;-69
2023/06/25 00:26:59;;;;;;;24.50;14.65;;;;;;;17.64;100.00;101968.94;5201802;28;20100;-69
2023/06/25 00:29:29;;;;;;;25.25;14.50;;;;;;;17.67;100.00;101965.84;5202195;28;20041;-69
2023/06/25 00:32:00;;;;;;;23.77;14.02;;;;;;;17.65;100.00;101963.31;5202463;28;20032;-69
2023/06/25 00:34:30;;;;;;;28.23;15.73;;;;;;;17.57;100.00;101961.56;5202326;28;20079;-68
2023/06/25 00:37:00;;;;;;;27.10;15.05;;;;;;;17.55;100.00;101963.59;5201385;28;20037;-69
2023/06/25 00:39:31;;;;;;;32.67;16.67;;;;;;;17.52;100.00;101957.69;5202187;28;20566;-69
2023/06/25 00:42:01;;;;;;;33.20;18.10;;;;;;;17.47;100.00;101950.13;5202038;28;20033;-68
2023/06/25 00:44:32;;;;;;;31.80;17.65;;;;;;;17.39;100.00;101962.91;5202100;28;20026;-69
2023/06/25 00:47:03;;;;;;;36.88;18.25;;;;;;;17.35;100.00;101948.88;5201613;28;20033;-69
2023/06/25 00:49:33;;;;;;;41.38;18.83;;;;;;;17.37;100.00;101956.81;5201272;28;20669;-69
2023/06/25 00:52:08;;;;;;;42.15;19.65;;;;;;;17.27;100.00;101955.22;5217657;28;20018;-69
2023/06/25 00:54:40;;;;;;;35.40;19.02;;;;;;;17.28;100.00;101951.50;5201803;28;20037;-69
2023/06/25 00:57:11;;;;;;;30.73;16.08;;;;;;;17.26;100.00;101947.25;5205402;28;20025;-69
2023/06/25 00:59:43;;;;;;;30.13;16.50;;;;;;;17.29;100.00;101953.16;5206967;28;20026;-69
2023/06/25 01:02:18;;;;;;;33.22;16.08;;;;;;;17.24;100.00;101941.19;5207107;28;20025;-69
2023/06/25 01:05:00;;;;;;;30.55;15.95;;;;;;;17.25;100.00;101932.03;5207610;28;20029;-69
2023/06/25 01:07:32;;;;;;;30.42;16.25;;;;;;;17.23;100.00;101931.38;5207208;28;20017;-69
2023/06/25 01:10:04;;;;;;;32.95;17.65;;;;;;;17.21;100.00;101931.53;5206265;28;20022;-69
2023/06/25 01:12:35;;;;;;;25.25;14.32;;;;;;;17.16;100.00;101925.81;5208728;28;20048;-69
2023/06/25 01:15:09;;;;;;;18.13;11.35;;;;;;;17.12;100.00;101918.22;5206862;28;20017;-69
2023/06/25 01:17:40;;;;;;;17.80;10.57;;;;;;;17.09;100.00;101927.59;5205455;28;20029;-69
2023/06/25 01:20:11;;;;;;;23.58;11.40;;;;;;;17.11;100.00;101928.25;5205598;28;20024;-69
2023/06/25 01:22:42;;;;;;;20.25;11.40;;;;;;;17.05;100.00;101915.44;5205324;28;20395;-69
2023/06/25 01:25:13;;;;;;;23.17;11.50;;;;;;;17.02;100.00;101913.09;5205459;28;20029;-69
2023/06/25 01:27:43;;;;;;;15.90;9.15;;;;;;;16.97;100.00;101910.94;5205021;28;20423;-69
2023/06/25 01:30:15;;;;;;;25.60;12.88;;;;;;;16.92;100.00;101909.78;5205380;28;20025;-69
2023/06/25 01:32:46;;;;;;;25.70;14.35;;;;;;;16.90;100.00;101911.81;5205466;28;20387;-69
2023/06/25 01:35:16;;;;;;;28.17;14.63;;;;;;;16.87;100.00;101904.91;5204921;28;20411;-69
2023/06/25 01:37:47;;;;;;;33.13;17.48;;;;;;;16.85;100.00;101901.53;5204892;28;20104;-69
2023/06/25 01:40:17;;;;;;;38.85;17.83;;;;;;;16.79;100.00;101897.69;5205258;28;20018;-69
2023/06/25 01:42:48;;;;;;;37.08;19.05;;;;;;;16.77;100.00;101890.78;5205225;28;20104;-69
2023/06/25 01:45:19;;;;;;;30.05;16.67;;;;;;;16.70;100.00;101890.59;5205088;28;20021;-69
2023/06/25 01:47:50;;;;;;;31.73;16.15;;;;;;;16.66;100.00;101885.72;5203862;28;20039;-69
2023/06/25 01:50:20;;;;;;;23.67;15.05;;;;;;;16.64;100.00;101888.63;5205322;28;20624;-69
2023/06/25 01:52:59;;;;;;;17.40;10.10;;;;;;;16.64;100.00;101879.66;5205086;28;20463;-69
2023/06/25 01:55:29;;;;;;;76.57;8.48;;;;;;;16.57;100.00;101888.53;5204948;28;20032;-69
2023/06/25 01:58:01;;;;;;;17.60;7.30;;;;;;;16.51;100.00;101872.97;5204023;28;20071;-69
2023/06/25 02:00:31;;;;;;;12.80;8.02;;;;;;;16.47;100.00;101868.13;5204976;28;20464;-69
2023/06/25 02:03:02;;;;;;;23.67;9.15;;;;;;;16.43;100.00;101867.63;5204855;28;20036;-69
2023/06/25 02:05:33;;;;;;;28.00;9.57;;;;;;;16.41;100.00;101868.81;5204829;28;20391;-69
2023/06/25 02:08:04;;;;;;;14.38;8.95;;;;;;;16.42;100.00;101862.41;5204454;28;22383;-69
2023/06/25 02:10:35;;;;;;;13.75;7.25;;;;;;;16.45;100.00;101862.00;5204359;28;20091;-69
2023/06/25 02:13:06;;;;;;;14.15;8.73;;;;;;;16.43;100.00;101853.25;5204745;28;20029;-69
2023/06/25 02:15:41;;;;;;;26.42;13.82;;;;;;;16.42;100.00;101854.28;5204131;28;20112;-69
2023/06/25 02:18:11;;;;;;;14.88;9.60;;;;;;;16.42;100.00;101851.56;5204244;28;20444;-69
2023/06/25 02:20:42;;;;;;;13.32;8.02;;;;;;;16.39;100.00;101841.91;5204752;28;20171;-68
2023/06/25 02:23:12;;;;;;;10.32;6.50;;;;;;;16.35;100.00;101853.28;5204160;28;20048;-68
2023/06/25 02:25:43;;;;;;;10.73;7.18;;;;;;;16.30;100.00;101851.13;5202451;28;20483;-69
2023/06/25 02:28:13;;;;;;;14.98;8.80;;;;;;;16.27;100.00;101855.03;5204195;28;20017;-69
2023/06/25 02:30:44;;;;;;;18.60;10.05;;;;;;;16.22;100.00;101851.19;5204356;28;20037;-68
2023/06/25 02:33:15;;;;;;;19.95;11.30;;;;;;;16.15;100.00;101847.50;5204334;28;20056;-68
2023/06/25 02:35:45;;;;;;;30.83;14.52;;;;;;;16.08;100.00;101838.41;5203440;28;20022;-68
2023/06/25 02:38:16;;;;;;;25.02;13.70;;;;;;;16.04;100.00;101836.06;5204124;28;20076;-68
2023/06/25 02:40:46;;;;;;;30.00;15.15;;;;;;;16.01;100.00;101847.25;5204188;28;20021;-68
2023/06/25 02:43:17;;;;;;;32.67;16.90;;;;;;;15.99;100.00;101840.31;5203982;28;20468;-68
2023/06/25 02:45:47;;;;;;;37.90;17.13;;;;;;;16.01;100.00;101846.38;5203351;28;20108;-68
2023/06/25 02:48:18;;;;;;;31.42;15.45;;;;;;;16.03;100.00;101845.19;5203237;28;20091;-68
2023/06/25 02:50:48;;;;;;;29.95;15.93;;;;;;;16.01;100.00;101839.13;5204032;28;20025;-69
2023/06/25 02:53:19;;;;;;;25.00;13.10;;;;;;;16.00;100.00;101839.28;5203970;28;20028;-68
2023/06/25 02:55:49;;;;;;;34.97;13.10;;;;;;;15.94;100.00;101842.72;5203458;28;20529;-69
2023/06/25 02:58:20;;;;;;;13.00;8.00;;;;;;;15.88;100.00;101838.00;5203922;28;20021;-68
2023/06/25 03:00:50;;;;;;;19.52;10.23;;;;;;;15.87;100.00;101833.63;5203592;28;20033;-68
2023/06/25 03:03:21;;;;;;;14.88;8.85;;;;;;;15.85;100.00;101833.78;5204007;28;20028;-68
2023/06/25 03:05:52;;;;;;;88.03;9.50;;;;;;;15.82;100.00;101836.88;5203102;28;20467;-70
2023/06/25 03:08:24;;;;;;;20.17;10.20;;;;;;;15.77;100.00;101834.69;5203781;28;20032;-70
2023/06/25 03:10:55;;;;;;;19.95;10.82;;;;;;;15.74;100.00;101831.47;5203314;28;20107;-71
2023/06/25 03:13:26;;;;;;;22.77;13.95;;;;;;;15.70;100.00;101827.44;5203774;28;20025;-71
2023/06/25 03:15:56;;;;;;;31.98;17.20;;;;;;;15.69;100.00;101837.41;5202869;28;20029;-71
2023/06/25 03:18:27;;;;;;;34.10;16.42;;;;;;;15.69;100.00;101839.28;5203071;28;20020;-71
2023/06/25 03:20:58;;;;;;;15.15;8.60;;;;;;;15.70;100.00;101833.69;5203435;28;20029;-70
2023/06/25 03:23:28;;;;;;;20.23;10.43;;;;;;;15.72;100.00;101833.53;5203072;28;20479;-71
2023/06/25 03:25:59;;;;;;;23.85;11.93;;;;;;;15.84;100.00;101829.41;5202951;28;20108;-71
2023/06/25 03:28:29;;;;;;;19.40;11.40;;;;;;;15.76;100.00;101824.03;5203131;28;20483;-71
2023/06/25 03:31:00;;;;;;;21.92;11.82;;;;;;;15.79;100.00;101823.69;5203393;28;20072;-71
2023/06/25 03:33:30;;;;;;;23.45;12.00;;;;;;;15.76;100.00;101816.78;5203491;28;20025;-71
2023/06/25 03:36:01;;;;;;;17.45;10.65;;;;;;;15.70;100.00;101820.16;5202478;28;20112;-71
2023/06/25 03:38:32;;;;;;;20.70;11.57;;;;;;;15.68;100.00;101819.50;5203134;28;20467;-71
2023/06/25 03:41:02;;;;;;;118.35;12.43;;;;;;;15.66;100.00;101824.25;5203318;28;20479;-71
2023/06/25 03:43:33;;;;;;;46.95;9.80;;;;;;;15.64;100.00;101822.72;5203217;28;20083;-71
2023/06/25 03:46:04;;;;;;;16.67;9.13;;;;;;;15.64;100.00;101833.56;5202691;28;20049;-71
2023/06/25 03:48:34;;;;;;;15.55;9.43;;;;;;;15.64;100.00;101820.03;5202523;28;20057;-71
2023/06/25 03:51:05;;;;;;;15.68;8.40;;;;;;;15.64;100.00;101820.88;5203093;28;20538;-71
2023/06/25 03:53:37;;;;;;;16.60;7.95;;;;;;;15.64;100.00;101815.47;5203372;28;20033;-71
2023/06/25 03:56:08;;;;;;;13.40;8.07;;;;;;;15.66;100.00;101818.84;5202437;28;20030;-71
2023/06/25 03:58:38;;;;;;;11.95;7.00;;;;;;;15.67;100.00;101809.72;5204111;28;20026;-71
2023/06/25 04:01:09;;;;;;;12.98;7.32;;;;;;;15.71;100.00;101813.75;5204558;28;20013;-71
2023/06/25 04:03:39;;;;;;;10.00;6.25;;;;;;;15.75;100.00;101811.50;5204086;28;20033;-71
2023/06/25 04:06:10;;;;;;;8.80;6.07;;;;;;;15.74;100.00;101812.53;5204332;28;20021;-71
2023/06/25 04:08:40;;;;;;;10.73;6.70;;;;;;;15.77;100.00;101807.63;5203859;28;20033;-71
2023/06/25 04:11:11;;;;;;;13.02;7.53;;;;;;;15.83;100.00;101816.91;5204604;28;20044;-71
2023/06/25 04:13:41;;;;;;;21.88;9.68;;;;;;;15.88;100.00;101814.50;5203645;28;20036;-71
2023/06/25 04:16:12;;;;;;;19.33;11.57;;;;;;;15.93;100.00;101812.09;5203963;28;20014;-71
2023/06/25 04:18:42;;;;;;;18.30;10.38;;;;;;;15.95;100.00;101809.22;5202823;28;20027;-71
2023/06/25 04:21:13;;;;;;;18.17;10.13;;;;;;;16.00;100.00;101814.94;5202684;28;20030;-71
2023/06/25 04:23:43;;;;;;;18.38;9.60;;;;;;;16.04;100.00;101808.16;5202535;28;20368;-71
2023/06/25 04:26:14;;;;;;;15.65;9.65;;;;;;;16.09;100.00;101815.72;5202363;28;20029;-71
2023/06/25 04:28:44;;;;;;;16.85;10.55;;;;;;;16.15;100.00;101812.31;5202239;28;20104;-71
2023/06/25 04:31:15;;;;;;;23.15;13.48;;;;;;;16.21;100.00;101815.13;5204374;28;20108;-71
2023/06/25 04:33:45;;;;;;;21.70;13.07;;;;;;;16.25;100.00;101812.91;5206586;28;20017;-71
2023/06/25 04:36:16;;;;;;;29.75;12.82;;;;;;;16.32;100.00;101811.19;5205727;28;20386;-71
2023/06/25 04:38:46;;;;;;;25.02;13.63;;;;;;;16.37;100.00;101808.78;5201159;28;20021;-71
2023/06/25 04:41:17;;;;;;;26.67;14.48;;;;;;;16.45;100.00;101805.97;5200838;28;20028;-71
2023/06/25 04:43:47;;;;;;;20.83;12.60;;;;;;;16.55;100.00;101811.16;5206250;28;20029;-71
2023/06/25 04:46:17;;;;;;;21.80;12.95;;;;;;;16.60;100.00;101821.44;5207018;28;20080;-71
2023/06/25 04:48:48;;;;;;;26.38;14.75;;;;;;;16.69;100.00;101812.22;5206501;28;20028;-71
2023/06/25 04:51:18;;;;;;;24.15;15.25;;;;;;;16.74;100.00;101813.38;5207164;28;20387;-71
2023/06/25 04:53:49;;;;;;;30.92;15.75;;;;;;;16.77;100.00;101812.19;5206889;28;20546;-70
2023/06/25 04:56:19;;;;;;;27.77;14.45;;;;;;;16.82;100.00;101813.31;5206644;28;20021;-71
2023/06/25 04:58:50;;;;;;;22.40;13.95;;;;;;;16.87;100.00;101806.47;5206532;28;20104;-71
2023/06/25 05:01:23;;;;;;;22.88;13.85;;;;;;;16.93;100.00;101808.47;5206724;28;20047;-71
2023/06/25 05:03:53;;;;;;;21.10;12.85;;;;;;;17.00;100.00;101806.69;5206771;28;20045;-71
2023/06/25 05:06:24;;;;;;;25.77;14.63;;;;;;;17.08;100.00;101803.91;5206389;28;20056;-71
2023/06/25 05:08:56;;;;;;;23.10;13.07;;;;;;;17.20;100.00;101799.69;5206965;28;20025;-71
2023/06/25 05:11:26;;;;;;;25.02;14.43;;;;;;;17.31;100.00;101804.66;5193927;28;20398;-71
2023/06/25 05:13:56;;;;;;;23.92;13.25;;;;;;;17.44;100.00;101803.16;5206269;28;20025;-71
2023/06/25 05:16:27;;;;;;;22.70;13.10;;;;;;;17.53;100.00;101808.31;5205438;28;20238;-71
2023/06/25 05:18:58;;;;;;;26.00;13.23;;;;;;;17.63;100.00;101799.03;5205385;28;20201;-71
2023/06/25 05:21:28;;;;;;;20.33;11.40;;;;;;;17.72;100.00;101800.59;5205533;28;20025;-71
2023/06/25 05:24:01;;;;;;;20.92;12.20;;;;;;;17.83;100.00;101802.88;5205470;28;20091;-71
2023/06/25 05:26:31;;;;;;;22.83;11.57;;;;;;;17.97;100.00;101801.13;5204944;28;20029;-72
2023/06/25 05:29:02;;;;;;;22.05;11.45;;;;;;;18.08;100.00;101803.34;5205487;28;20094;-71
2023/06/25 05:31:33;;;;;;;18.15;9.63;;;;;;;18.19;100.00;101791.13;5200772;28;20036;-72
2023/06/25 05:34:03;;;;;;;19.45;9.75;;;;;;;18.38;100.00;101795.94;5197944;28;20018;-71
2023/06/25 05:36:34;;;;;;;14.25;8.73;;;;;;;18.54;100.00;101803.78;5198070;28;20029;-72
2023/06/25 05:39:04;;;;;;;16.25;9.48;;;;;;;18.71;100.00;101798.09;5203505;28;20026;-71
2023/06/25 05:41:53;;;;;;;15.15;9.05;;;;;;;18.86;100.00;101802.41;5202819;28;20044;-71
2023/06/25 05:44:26;;;;;;;12.80;9.05;;;;;;;19.00;100.00;101792.47;5203486;28;20037;-71
2023/06/25 05:46:57;;;;;;;14.35;9.60;;;;;;;19.17;100.00;101794.88;5202881;28;20025;-71
2023/06/25 05:49:27;;;;;;;15.32;8.40;;;;;;;19.30;100.00;101792.25;5202471;28;20041;-71
2023/06/25 05:51:57;;;;;;;14.52;7.72;;;;;;;19.45;100.00;101797.53;5203050;28;20034;-71
2023/06/25 05:54:28;;;;;;;22.38;8.75;;;;;;;19.64;100.00;101800.41;5203037;28;20064;-71
2023/06/25 05:56:59;;;;;;;18.50;8.50;;;;;;;19.81;100.00;101800.88;5218082;28;20021;-71
2023/06/25 05:59:30;;;;;;;14.80;8.80;;;;;;;20.09;100.00;101799.91;5203079;28;20029;-71
2023/06/25 06:02:01;;;;;;;15.10;8.23;;;;;;;20.47;100.00;101804.81;5202225;28;20029;-71
2023/06/25 06:04:32;;;;;;;13.43;8.43;;;;;;;21.18;100.00;101799.50;5203091;28;20032;-71
2023/06/25 06:07:03;;;;;;;15.07;7.90;;;;;;;21.93;100.00;101791.69;5202340;28;20028;-71
2023/06/25 06:09:33;;;;;;;11.18;7.40;;;;;;;22.73;100.00;101790.06;5203016;28;20029;-71
2023/06/25 06:12:04;;;;;;;10.60;6.70;;;;;;;23.74;100.00;101788.81;5202733;28;20031;-72
2023/06/25 06:14:37;;;;;;;12.65;7.18;;;;;;;24.54;100.00;101791.22;5190897;28;20705;-72
2023/06/25 06:17:08;;;;;;;12.45;7.05;;;;;;;25.20;100.00;101789.25;5203098;28;20061;-72
2023/06/25 06:19:38;;;;;;;13.27;6.50;;;;;;;25.75;100.00;101797.00;5204253;28;20570;-72
2023/06/25 06:22:09;;;;;;;10.90;6.50;;;;;;;26.05;100.00;101795.94;5203722;28;20109;-72
2023/06/25 06:24:39;;;;;;;12.07;6.50;;;;;;;26.44;100.00;101788.69;5203801;28;20036;-72
2023/06/25 06:27:10;;;;;;;11.75;6.45;;;;;;;26.76;100.00;101794.44;5202983;28;20087;-70
2023/06/25 06:29:40;;;;;;;8.38;5.25;;;;;;;27.06;100.00;101790.47;5203818;28;20118;-70
2023/06/25 06:32:12;;;;;;;10.48;5.68;;;;;;;27.23;100.00;101793.22;5203820;28;20029;-70
2023/06/25 06:34:42;;;;;;;8.13;5.47;;;;;;;27.56;100.00;101784.84;5203995;28;20021;-70
2023/06/25 06:37:13;;;;;;;8.85;5.05;;;;;;;27.79;100.00;101786.50;5202538;28;20033;-70
2023/06/25 06:39:43;;;;;;;10.95;5.15;;;;;;;27.83;100.00;101787.66;5203796;28;20017;-70
2023/06/25 06:42:14;;;;;;;7.43;4.88;;;;;;;27.85;100.00;101784.63;5203666;28;20029;-70
2023/06/25 06:44:44;;;;;;;8.60;4.60;;;;;;;27.67;100.00;101783.03;5203528;28;20029;-70
2023/06/25 06:47:16;;;;;;;6.40;4.50;;;;;;;27.81;100.00;101784.34;5202787;28;20029;-70
2023/06/25 06:49:46;;;;;;;11.75;4.35;;;;;;;28.14;100.00;101783.28;5203127;28;20102;-70
2023/06/25 06:52:23;;;;;;;4.97;4.35;;;;;;;28.20;100.00;101778.63;5203601;28;20025;-71
2023/06/25 06:54:54;;;;;;;8.68;4.70;;;;;;;28.42;100.00;101783.31;5202653;28;20502;-70
2023/06/25 06:57:24;;;;;;;8.32;4.57;;;;;;;28.65;100.00;101785.66;5202814;28;20030;-70
2023/06/25 06:59:55;;;;;;;7.50;3.65;;;;;;;28.79;100.00;101780.53;5203147;28;20014;-71
2023/06/25 07:02:25;;;;;;;10.43;4.68;;;;;;;28.81;100.00;101783.84;5202818;28;20041;-71
2023/06/25 07:04:56;;;;;;;11.27;4.40;;;;;;;29.17;100.00;101779.44;5203367;28;20021;-70
2023/06/25 07:07:27;;;;;;;5.35;3.67;;;;;;;29.40;100.00;101783.66;5202608;28;20045;-71
2023/06/25 07:09:57;;;;;;;6.93;4.43;;;;;;;29.26;100.00;101782.47;5203162;28;20025;-71
2023/06/25 07:12:28;;;;;;;8.40;4.05;;;;;;;29.62;100.00;101780.72;5203037;28;20534;-71
2023/06/25 07:14:58;;;;;;;8.20;4.63;;;;;;;29.36;100.00;101774.25;5203028;28;20029;-71
2023/06/25 07:17:29;;;;;;;5.93;4.38;;;;;;;29.36;100.00;101783.34;5202345;28;20372;-70
2023/06/25 07:19:59;;;;;;;5.75;4.05;;;;;;;29.39;100.00;101776.47;5203591;28;20028;-71
2023/06/25 07:22:32;;;;;;;4.97;3.70;;;;;;;29.90;100.00;101777.50;5202956;28;20037;-71
2023/06/25 07:25:03;;;;;;;6.13;3.60;;;;;;;30.09;100.00;101786.09;5202908;28;20029;-71
2023/06/25 07:27:33;;;;;;;7.32;4.38;;;;;;;29.80;100.00;101773.88;5202458;28;20032;-71
2023/06/25 07:30:05;;;;;;;4.65;3.60;;;;;;;29.81;100.00;101773.59;5202996;28;20032;-71
2023/06/25 07:32:35;;;;;;;5.97;3.97;;;;;;;30.09;100.00;101769.50;5203105;28;20426;-71
2023/06/25 07:35:06;;;;;;;7.82;4.40;;;;;;;29.96;100.00;101761.72;5203031;28;20079;-71
2023/06/25 07:37:37;;;;;;;8.10;4.07;;;;;;;30.35;100.00;101764.84;5201774;28;20036;-71
2023/06/25 07:40:08;;;;;;;7.10;3.80;;;;;;;30.50;100.00;101769.53;5202760;28;20491;-71
2023/06/25 07:42:38;;;;;;;6.45;4.10;;;;;;;30.38;100.00;101760.69;5202844;28;20029;-71
2023/06/25 07:45:09;;;;;;;10.45;4.60;;;;;;;30.33;100.00;101757.94;5202658;28;20025;-71
2023/06/25 07:47:40;;;;;;;9.73;3.78;;;;;;;30.40;100.00;101756.53;5202043;28;20029;-71
2023/06/25 07:50:11;;;;;;;7.57;4.35;;;;;;;30.39;100.00;101756.81;5202545;28;20112;-71
2023/06/25 07:52:41;;;;;;;9.35;4.63;;;;;;;30.38;100.00;101760.69;5202789;28;20558;-71
2023/06/25 07:55:12;;;;;;;9.68;4.32;;;;;;;30.53;100.00;101757.91;5202757;28;20112;-71
2023/06/25 07:57:42;;;;;;;7.57;4.47;;;;;;;30.73;100.00;101761.81;5197214;28;20491;-71
2023/06/25 08:00:13;;;;;;;6.43;3.97;;;;;;;30.97;100.00;101757.28;5198926;28;20021;-71
2023/06/25 08:02:44;;;;;;;6.78;3.70;;;;;;;30.96;100.00;101752.88;5201386;28;20065;-71
2023/06/25 08:05:14;;;;;;;6.57;4.38;;;;;;;30.98;100.00;101753.44;5204136;28;20021;-71
2023/06/25 08:07:45;;;;;;;6.28;4.07;;;;;;;31.33;100.00;101749.72;5205540;28;20025;-71
2023/06/25 08:10:15;;;;;;;8.05;4.28;;;;;;;31.64;100.00;101746.81;5206415;28;20021;-71
2023/06/25 08:12:46;;;;;;;7.40;3.42;;;;;;;31.56;100.00;101751.00;5205931;28;20053;-71
2023/06/25 08:15:16;;;;;;;6.63;3.65;;;;;;;31.74;100.00;101749.50;5205816;28;20037;-71
2023/06/25 08:17:47;;;;;;;8.30;4.43;;;;;;;31.90;100.00;101747.50;5205136;28;20036;-70
2023/06/25 08:20:18;;;;;;;7.43;4.05;;;;;;;31.76;100.00;101736.16;5206025;28;20371;-69
2023/06/25 08:22:48;;;;;;;5.72;4.13;;;;;;;32.23;99.27;101751.38;5205757;28;20025;-70
2023/06/25 08:25:23;;;;;;;6.75;3.85;;;;;;;31.80;94.76;101741.97;5205850;28;20018;-70
2023/06/25 08:27:54;;;;;;;7.82;4.55;;;;;;;31.87;99.88;101734.19;5205560;28;20021;-70
2023/06/25 08:30:24;;;;;;;5.93;3.45;;;;;;;32.28;100.00;101729.13;5205935;28;20017;-70
2023/06/25 08:32:55;;;;;;;7.18;4.05;;;;;;;32.67;100.00;101737.41;5205848;28;20076;-70
2023/06/25 08:35:25;;;;;;;6.93;4.05;;;;;;;32.76;100.00;101734.81;5205907;28;20022;-71
2023/06/25 08:37:56;;;;;;;8.75;3.85;;;;;;;32.87;100.00;101732.75;5205074;28;20028;-71
2023/06/25 08:40:27;;;;;;;6.63;3.45;;;;;;;32.89;96.15;101724.97;5205860;28;20021;-71
2023/06/25 08:42:57;;;;;;;6.28;3.70;;;;;;;32.95;94.18;101730.19;5205583;28;20049;-71
2023/06/25 08:45:29;;;;;;;6.90;3.80;;;;;;;32.73;95.06;101725.13;5205817;28;20446;-71
2023/06/25 08:48:03;;;;;;;9.15;4.00;;;;;;;32.83;89.85;101728.91;5204868;28;20021;-71
2023/06/25 08:50:34;;;;;;;6.25;4.20;;;;;;;32.98;92.19;101723.19;5205151;28;20045;-71
2023/06/25 08:53:04;;;;;;;11.57;4.13;;;;;;;32.83;89.22;101724.16;5205445;28;20021;-71
2023/06/25 08:55:37;;;;;;;6.93;4.25;;;;;;;32.81;94.24;101712.53;5206946;28;20025;-71
2023/06/25 08:58:07;;;;;;;5.68;4.20;;;;;;;32.67;85.44;101722.69;5206580;28;20033;-71
2023/06/25 09:00:37;;;;;;;4.93;3.85;;;;;;;32.61;81.49;101715.53;5205413;28;20047;-71
2023/06/25 09:03:08;;;;;;;6.13;3.90;;;;;;;32.93;76.70;101712.97;5205341;28;20033;-71
2023/06/25 09:05:38;;;;;;;5.80;4.13;;;;;;;32.97;88.61;101713.19;5204576;28;20021;-71
2023/06/25 09:08:14;;;;;;;7.18;3.53;;;;;;;32.43;90.10;101714.31;5207591;28;20027;-72
2023/06/25 09:10:49;;;;;;;5.40;4.03;;;;;;;32.84;95.08;101711.13;5208018;28;20470;-71
2023/06/25 09:13:23;;;;;;;4.25;3.63;;;;;;;33.39;88.72;101717.13;5205395;28;20044;-71
2023/06/25 09:16:01;;;;;;;8.95;4.10;;;;;;;33.58;85.49;101711.59;5204250;28;20017;-72
2023/06/25 09:18:31;;;;;;;7.03;3.83;;;;;;;33.89;79.72;101715.56;5203617;28;20041;-72
2023/06/25 09:21:03;;;;;;;5.75;4.35;;;;;;;34.11;74.39;101714.13;5205136;28;20014;-71
2023/06/25 09:23:35;;;;;;;5.28;4.35;;;;;;;33.81;74.99;101712.66;5204565;28;20029;-71
2023/06/25 09:26:09;;;;;;;5.38;3.88;;;;;;;34.08;82.37;101711.94;5204107;28;20057;-72
2023/06/25 09:28:59;;;;;;;7.78;4.45;;;;;;;33.78;83.40;101708.50;5204335;28;20517;-72
2023/06/25 09:31:33;;;;;;;6.38;4.00;;;;;;;33.98;78.23;101708.19;5204509;28;20168;-71
2023/06/25 09:34:04;;;;;;;6.75;4.57;;;;;;;33.58;70.76;101714.38;5204827;28;20029;-72
2023/06/25 09:36:35;;;;;;;8.77;4.40;;;;;;;32.97;66.09;101699.31;5203491;28;20030;-72
2023/06/25 09:39:08;;;;;;;9.32;4.28;;;;;;;32.67;74.31;101706.84;5204554;28;20147;-71
2023/06/25 09:41:41;;;;;;;6.13;4.40;;;;;;;33.15;73.48;101695.75;5202735;28;20021;-71
2023/06/25 09:44:13;;;;;;;5.63;4.03;;;;;;;33.13;77.21;101694.38;5204827;28;20029;-71
2023/06/25 09:46:48;;;;;;;6.50;4.05;;;;;;;33.13;70.84;101697.16;5204002;28;20071;-72
2023/06/25 09:49:20;;;;;;;5.03;3.97;;;;;;;33.27;78.31;101691.69;5204128;28;20059;-71
2023/06/25 09:52:09;;;;;;;9.50;4.60;;;;;;;33.35;74.09;101691.03;5204256;28;20100;-71
2023/06/25 09:54:41;;;;;;;4.65;4.13;;;;;;;33.50;75.50;101686.13;5206208;28;20545;-72
2023/06/25 09:57:15;;;;;;;5.80;4.05;;;;;;;33.01;67.41;101689.25;5203595;28;20051;-71
2023/06/25 09:59:46;;;;;;;5.68;4.28;;;;;;;33.49;65.40;101678.09;5204402;28;20083;-72
2023/06/25 10:02:17;;;;;;;7.53;4.38;;;;;;;33.29;70.10;101684.72;5204349;28;20028;-72
2023/06/25 10:04:49;;;;;;;6.78;4.45;;;;;;;33.46;67.71;101678.66;5204328;28;20029;-71
2023/06/25 10:07:21;;;;;;;5.38;4.35;;;;;;;33.39;66.36;101678.19;5203424;28;20021;-71
2023/06/25 10:09:53;;;;;;;4.93;4.32;;;;;;;33.68;83.30;101681.66;5203923;28;20021;-71
2023/06/25 10:12:24;;;;;;;7.38;4.97;;;;;;;33.89;84.40;101679.41;5203915;28;20029;-71
2023/06/25 10:14:54;;;;;;;6.72;4.28;;;;;;;33.76;71.38;101678.19;5204095;28;20097;-72
2023/06/25 10:17:25;;;;;;;6.82;4.35;;;;;;;33.23;78.12;101672.00;5203294;28;20013;-71
2023/06/25 10:19:57;;;;;;;5.18;4.30;;;;;;;33.39;75.41;101667.91;5203902;28;20010;-72
2023/06/25 10:22:28;;;;;;;5.68;3.92;;;;;;;32.81;69.27;101670.84;5203418;28;20643;-72
2023/06/25 10:24:58;;;;;;;7.78;4.50;;;;;;;33.05;89.16;101664.50;5203752;28;20483;-71
2023/06/25 10:27:29;;;;;;;7.43;4.43;;;;;;;33.33;76.78;101665.47;5235221;28;20033;-72
2023/06/25 10:30:11;;;;;;;5.10;4.47;;;;;;;33.28;74.44;101659.97;5203460;28;20044;-71
2023/06/25 10:32:42;;;;;;;6.07;4.15;;;;;;;33.48;75.32;101656.94;5203437;28;20048;-72
2023/06/25 10:35:17;;;;;;;6.90;4.32;;;;;;;33.06;81.43;101653.06;5203345;28;20057;-72
2023/06/25 10:37:48;;;;;;;9.07;4.55;;;;;;;33.47;66.77;101656.09;5204792;28;20086;-71
2023/06/25 10:40:19;;;;;;;4.80;4.20;;;;;;;33.59;82.02;101647.31;5204132;28;20018;-72
2023/06/25 10:42:50;;;;;;;7.82;4.22;;;;;;;33.79;76.95;101648.09;5203405;28;20021;-72
2023/06/25 10:45:20;;;;;;;4.85;4.18;;;;;;;33.78;73.16;101652.03;5203199;28;20495;-71
2023/06/25 10:48:11;;;;;;;8.20;4.32;;;;;;;33.52;68.15;101644.09;5202596;28;20025;-72
2023/06/25 10:50:42;;;;;;;5.80;4.25;;;;;;;33.12;80.45;101651.84;5203360;28;20567;-72
2023/06/25 10:53:15;;;;;;;5.32;4.20;;;;;;;32.81;68.89;101643.06;5203541;28;20104;-71
2023/06/25 10:55:48;;;;;;;5.07;4.20;;;;;;;32.72;74.04;101642.06;5202291;28;20848;-72
2023/06/25 10:58:21;;;;;;;5.80;4.80;;;;;;;32.89;69.82;101641.59;5203337;28;20090;-71
2023/06/25 11:01:08;;;;;;;8.43;4.43;;;;;;;32.64;68.41;101634.41;5203082;28;20022;-71
2023/06/25 11:03:39;;;;;;;5.70;4.43;;;;;;;32.57;69.25;101633.91;5207649;28;20032;-72
2023/06/25 11:06:09;;;;;;;10.82;5.38;;;;;;;32.69;78.10;101626.84;5202317;28;20021;-71
2023/06/25 11:08:42;;;;;;;5.85;4.18;;;;;;;32.82;81.85;101632.78;5202810;28;20025;-72
2023/06/25 11:11:12;;;;;;;6.25;4.43;;;;;;;32.84;73.00;101625.00;5203344;28;20013;-71
2023/06/25 11:13:47;;;;;;;5.80;4.40;;;;;;;32.94;63.83;101620.16;5204306;28;20043;-71
2023/06/25 11:16:19;;;;;;;5.25;4.22;;;;;;;33.09;75.80;101616.34;5202947;28;20021;-72
2023/06/25 11:18:50;;;;;;;7.60;4.43;;;;;;;33.37;87.89;101620.09;5202343;28;20490;-72
2023/06/25 11:21:21;;;;;;;5.72;4.57;;;;;;;33.06;68.70;101605.81;5202734;28;20096;-71
2023/06/25 11:23:51;;;;;;;5.32;3.83;;;;;;;33.12;72.83;101606.56;5202709;28;20139;-72
2023/06/25 11:26:22;;;;;;;4.57;4.05;;;;;;;33.21;60.74;101600.03;5202051;28;20087;-72
2023/06/25 11:28:52;;;;;;;5.78;4.45;;;;;;;33.18;68.79;101599.78;5201989;28;20510;-72
2023/06/25 11:31:23;;;;;;;5.40;4.30;;;;;;;33.05;69.27;101601.38;5202671;28;20623;-72